This is the latest recevied weather packets stored in our database for station/object IZ8QAD-12. If no packets are shown the sender has not sent any weather packets the latest 10 day(s).
| Time | Temp. | Humidity | Pressure | Rain* | Wind** | Luminosity | Snow |
|---|---|---|---|---|---|---|---|
| 1777646539 | 16.11° C | 24% | 972.7 hPa | - | - | - | - |
| 1777641139 | 27.78° C | 14% | 973.4 hPa | - | - | - | - |
| 1777638439 | 35° C | 11% | 973.7 hPa | - | - | - | - |
| 1777635739 | 23.89° C | 19% | 973.8 hPa | - | - | - | - |
| 1777633039 | 26.67° C | 17% | 974.1 hPa | - | - | - | - |
| 1777630339 | 33.89° C | 15% | 974 hPa | - | - | - | - |
| 1777627639 | 38.89° C | 10% | 974.1 hPa | - | - | - | - |
| 1777624939 | 33.89° C | 16% | 974.1 hPa | - | - | - | - |
| 1777622239 | 28.89° C | 22% | 974 hPa | - | - | - | - |
| 1777619538 | 27.22° C | 26% | 973.8 hPa | - | - | - | - |
| 1777616838 | 15° C | 46% | 973.8 hPa | - | - | - | - |
| 1777614138 | 9.44° C | 56% | 973.3 hPa | - | - | - | - |
| 1777611438 | 6.67° C | 60% | 973.1 hPa | - | - | - | - |
| 1777608738 | 6.11° C | 59% | 972.8 hPa | - | - | - | - |
| 1777606038 | 6.67° C | 60% | 972.9 hPa | - | - | - | - |
| 1777600638 | 6.67° C | 59% | 973 hPa | - | - | - | - |
| 1777597938 | 7.78° C | 58% | 973 hPa | - | - | - | - |
| 1777595238 | 7.22° C | 58% | 973.4 hPa | - | - | - | - |
| 1777589838 | 6.67° C | 55% | 973.7 hPa | - | - | - | - |
| 1777587146 | 6.67° C | 53% | 973.9 hPa | - | - | - | - |
| 1777584438 | 6.67° C | 51% | 973.9 hPa | - | - | - | - |
| 1777581738 | 7.78° C | 49% | 973.8 hPa | - | - | - | - |
| 1777579037 | 8.33° C | 47% | 973.7 hPa | - | - | - | - |
| 1777576337 | 9.44° C | 48% | 973.5 hPa | - | - | - | - |
| 1777573637 | 11.11° C | 46% | 972.9 hPa | - | - | - | - |
* Rain since midnight (hover to see other rain measurements)
** Current wind speed in m/s (hover to see current wind gust speed)